sensor_id;sensor_type;location;lat;lon;timestamp;P1;durP1;ratioP1;P2;durP2;ratioP2
8881;SDS011;4477;48.736;9.176;2022-09-09T00:01:00;4.00;;;1.60;;
8881;SDS011;4477;48.736;9.176;2022-09-09T00:03:37;3.27;;;1.80;;
8881;SDS011;4477;48.736;9.176;2022-09-09T00:06:12;5.00;;;2.07;;
8881;SDS011;4477;48.736;9.176;2022-09-09T00:08:46;2.83;;;1.67;;
8881;SDS011;4477;48.736;9.176;2022-09-09T00:11:26;3.03;;;1.80;;
8881;SDS011;4477;48.736;9.176;2022-09-09T00:13:58;5.17;;;1.93;;
8881;SDS011;4477;48.736;9.176;2022-09-09T00:16:29;5.13;;;1.80;;
8881;SDS011;4477;48.736;9.176;2022-09-09T00:19:03;4.63;;;2.00;;
8881;SDS011;4477;48.736;9.176;2022-09-09T00:21:35;3.13;;;1.90;;
8881;SDS011;4477;48.736;9.176;2022-09-09T00:24:08;4.60;;;2.00;;
8881;SDS011;4477;48.736;9.176;2022-09-09T00:26:40;3.03;;;2.00;;
8881;SDS011;4477;48.736;9.176;2022-09-09T00:29:14;6.00;;;1.93;;
8881;SDS011;4477;48.736;9.176;2022-09-09T00:31:53;7.13;;;1.90;;
8881;SDS011;4477;48.736;9.176;2022-09-09T00:34:24;3.97;;;2.03;;
8881;SDS011;4477;48.736;9.176;2022-09-09T00:36:53;5.03;;;2.13;;
8881;SDS011;4477;48.736;9.176;2022-09-09T00:39:25;3.10;;;1.60;;
8881;SDS011;4477;48.736;9.176;2022-09-09T00:42:10;3.30;;;1.90;;
8881;SDS011;4477;48.736;9.176;2022-09-09T00:44:46;6.40;;;2.00;;
8881;SDS011;4477;48.736;9.176;2022-09-09T00:50:25;3.43;;;1.60;;
8881;SDS011;4477;48.736;9.176;2022-09-09T00:53:08;3.97;;;0.97;;
8881;SDS011;4477;48.736;9.176;2022-09-09T00:55:47;7.80;;;1.80;;
8881;SDS011;4477;48.736;9.176;2022-09-09T00:58:18;3.80;;;1.43;;
8881;SDS011;4477;48.736;9.176;2022-09-09T01:00:49;3.17;;;1.20;;
8881;SDS011;4477;48.736;9.176;2022-09-09T01:03:21;2.83;;;1.10;;
8881;SDS011;4477;48.736;9.176;2022-09-09T01:05:54;3.67;;;1.17;;
8881;SDS011;4477;48.736;9.176;2022-09-09T01:08:35;2.67;;;1.20;;
8881;SDS011;4477;48.736;9.176;2022-09-09T01:11:19;3.67;;;1.30;;
8881;SDS011;4477;48.736;9.176;2022-09-09T01:13:52;3.47;;;1.27;;
8881;SDS011;4477;48.736;9.176;2022-09-09T01:16:27;4.57;;;1.30;;
8881;SDS011;4477;48.736;9.176;2022-09-09T01:18:56;3.93;;;1.30;;
8881;SDS011;4477;48.736;9.176;2022-09-09T01:21:26;3.27;;;1.20;;
8881;SDS011;4477;48.736;9.176;2022-09-09T01:24:12;3.10;;;1.30;;
8881;SDS011;4477;48.736;9.176;2022-09-09T01:26:46;1.83;;;1.17;;
8881;SDS011;4477;48.736;9.176;2022-09-09T01:29:16;3.20;;;1.20;;
8881;SDS011;4477;48.736;9.176;2022-09-09T01:31:52;3.50;;;1.53;;
8881;SDS011;4477;48.736;9.176;2022-09-09T01:34:21;3.97;;;1.40;;
8881;SDS011;4477;48.736;9.176;2022-09-09T01:36:49;2.40;;;1.17;;
8881;SDS011;4477;48.736;9.176;2022-09-09T01:39:23;5.50;;;1.40;;
8881;SDS011;4477;48.736;9.176;2022-09-09T01:41:51;3.80;;;1.30;;
8881;SDS011;4477;48.736;9.176;2022-09-09T01:44:19;4.07;;;1.20;;
8881;SDS011;4477;48.736;9.176;2022-09-09T01:46:46;2.07;;;1.13;;
8881;SDS011;4477;48.736;9.176;2022-09-09T01:49:13;2.17;;;1.20;;
8881;SDS011;4477;48.736;9.176;2022-09-09T01:51:40;5.73;;;1.50;;
8881;SDS011;4477;48.736;9.176;2022-09-09T01:54:08;2.00;;;1.20;;
8881;SDS011;4477;48.736;9.176;2022-09-09T01:56:39;4.57;;;1.50;;
8881;SDS011;4477;48.736;9.176;2022-09-09T01:59:31;3.40;;;1.30;;
8881;SDS011;4477;48.736;9.176;2022-09-09T02:02:09;2.57;;;1.20;;
8881;SDS011;4477;48.736;9.176;2022-09-09T02:04:38;2.87;;;1.37;;
8881;SDS011;4477;48.736;9.176;2022-09-09T02:07:10;5.03;;;1.77;;
8881;SDS011;4477;48.736;9.176;2022-09-09T02:09:43;3.13;;;1.77;;
8881;SDS011;4477;48.736;9.176;2022-09-09T02:12:16;2.80;;;1.37;;
8881;SDS011;4477;48.736;9.176;2022-09-09T02:14:48;3.73;;;1.40;;
8881;SDS011;4477;48.736;9.176;2022-09-09T02:17:22;2.70;;;1.30;;
8881;SDS011;4477;48.736;9.176;2022-09-09T02:19:54;3.60;;;1.67;;
8881;SDS011;4477;48.736;9.176;2022-09-09T02:22:26;3.07;;;1.23;;
8881;SDS011;4477;48.736;9.176;2022-09-09T02:24:59;3.43;;;1.60;;
8881;SDS011;4477;48.736;9.176;2022-09-09T02:27:26;3.83;;;1.50;;
8881;SDS011;4477;48.736;9.176;2022-09-09T02:29:56;1.93;;;1.27;;
8881;SDS011;4477;48.736;9.176;2022-09-09T02:32:25;4.70;;;1.70;;
8881;SDS011;4477;48.736;9.176;2022-09-09T02:34:55;6.70;;;1.83;;
8881;SDS011;4477;48.736;9.176;2022-09-09T02:37:27;4.33;;;1.60;;
8881;SDS011;4477;48.736;9.176;2022-09-09T02:40:02;2.87;;;1.70;;
8881;SDS011;4477;48.736;9.176;2022-09-09T02:42:29;3.43;;;1.60;;
8881;SDS011;4477;48.736;9.176;2022-09-09T02:44:57;4.00;;;1.60;;
8881;SDS011;4477;48.736;9.176;2022-09-09T02:47:25;3.40;;;1.57;;
8881;SDS011;4477;48.736;9.176;2022-09-09T02:49:58;6.27;;;2.07;;
8881;SDS011;4477;48.736;9.176;2022-09-09T02:52:32;4.07;;;1.80;;
8881;SDS011;4477;48.736;9.176;2022-09-09T02:55:06;5.30;;;2.00;;
8881;SDS011;4477;48.736;9.176;2022-09-09T02:57:41;4.23;;;2.07;;
8881;SDS011;4477;48.736;9.176;2022-09-09T03:00:12;4.60;;;2.13;;
8881;SDS011;4477;48.736;9.176;2022-09-09T03:02:39;5.73;;;2.13;;
8881;SDS011;4477;48.736;9.176;2022-09-09T03:05:07;3.90;;;1.70;;
8881;SDS011;4477;48.736;9.176;2022-09-09T03:07:34;4.83;;;2.23;;
8881;SDS011;4477;48.736;9.176;2022-09-09T03:10:01;4.43;;;2.10;;
8881;SDS011;4477;48.736;9.176;2022-09-09T03:12:29;4.60;;;2.37;;
8881;SDS011;4477;48.736;9.176;2022-09-09T03:14:56;4.30;;;1.70;;
8881;SDS011;4477;48.736;9.176;2022-09-09T03:17:24;2.47;;;1.50;;
8881;SDS011;4477;48.736;9.176;2022-09-09T03:19:53;2.50;;;1.80;;
8881;SDS011;4477;48.736;9.176;2022-09-09T03:22:21;4.47;;;1.90;;
8881;SDS011;4477;48.736;9.176;2022-09-09T03:24:48;2.53;;;1.50;;
8881;SDS011;4477;48.736;9.176;2022-09-09T03:27:15;4.63;;;1.73;;
8881;SDS011;4477;48.736;9.176;2022-09-09T03:29:42;2.43;;;1.57;;
8881;SDS011;4477;48.736;9.176;2022-09-09T03:32:10;2.70;;;1.40;;
8881;SDS011;4477;48.736;9.176;2022-09-09T03:34:38;3.87;;;1.40;;
8881;SDS011;4477;48.736;9.176;2022-09-09T03:37:05;3.07;;;1.63;;
8881;SDS011;4477;48.736;9.176;2022-09-09T03:39:32;1.90;;;1.20;;
8881;SDS011;4477;48.736;9.176;2022-09-09T03:42:00;2.10;;;1.47;;
8881;SDS011;4477;48.736;9.176;2022-09-09T03:44:29;2.27;;;1.40;;
8881;SDS011;4477;48.736;9.176;2022-09-09T03:46:57;3.10;;;1.20;;
8881;SDS011;4477;48.736;9.176;2022-09-09T03:49:25;2.23;;;1.40;;
8881;SDS011;4477;48.736;9.176;2022-09-09T03:51:54;3.07;;;1.40;;
8881;SDS011;4477;48.736;9.176;2022-09-09T03:54:22;3.90;;;1.37;;
8881;SDS011;4477;48.736;9.176;2022-09-09T03:56:49;3.33;;;1.53;;
8881;SDS011;4477;48.736;9.176;2022-09-09T03:59:16;2.67;;;1.30;;
8881;SDS011;4477;48.736;9.176;2022-09-09T04:01:43;5.17;;;1.70;;
8881;SDS011;4477;48.736;9.176;2022-09-09T04:04:12;3.57;;;1.60;;
8881;SDS011;4477;48.736;9.176;2022-09-09T04:06:39;2.67;;;1.30;;
8881;SDS011;4477;48.736;9.176;2022-09-09T04:09:07;2.50;;;1.20;;
8881;SDS011;4477;48.736;9.176;2022-09-09T04:11:34;3.80;;;1.30;;
8881;SDS011;4477;48.736;9.176;2022-09-09T04:14:02;6.83;;;1.77;;
8881;SDS011;4477;48.736;9.176;2022-09-09T04:16:29;3.43;;;1.40;;
8881;SDS011;4477;48.736;9.176;2022-09-09T04:18:56;3.10;;;1.50;;
8881;SDS011;4477;48.736;9.176;2022-09-09T04:21:23;3.40;;;1.50;;
8881;SDS011;4477;48.736;9.176;2022-09-09T04:23:49;2.57;;;1.50;;
8881;SDS011;4477;48.736;9.176;2022-09-09T04:26:18;6.73;;;1.43;;
8881;SDS011;4477;48.736;9.176;2022-09-09T04:28:45;3.10;;;1.60;;
8881;SDS011;4477;48.736;9.176;2022-09-09T04:31:14;3.83;;;1.60;;
8881;SDS011;4477;48.736;9.176;2022-09-09T04:33:43;3.70;;;1.37;;
8881;SDS011;4477;48.736;9.176;2022-09-09T04:36:11;2.70;;;1.40;;
8881;SDS011;4477;48.736;9.176;2022-09-09T04:38:38;4.90;;;1.60;;
8881;SDS011;4477;48.736;9.176;2022-09-09T04:41:05;3.07;;;1.40;;
8881;SDS011;4477;48.736;9.176;2022-09-09T04:43:34;4.30;;;1.50;;
8881;SDS011;4477;48.736;9.176;2022-09-09T04:46:02;4.83;;;1.63;;
8881;SDS011;4477;48.736;9.176;2022-09-09T04:48:29;4.20;;;2.17;;
8881;SDS011;4477;48.736;9.176;2022-09-09T04:50:57;5.80;;;1.80;;
8881;SDS011;4477;48.736;9.176;2022-09-09T04:53:25;6.37;;;1.90;;
8881;SDS011;4477;48.736;9.176;2022-09-09T04:55:52;3.87;;;1.67;;
8881;SDS011;4477;48.736;9.176;2022-09-09T04:58:19;3.43;;;1.50;;
8881;SDS011;4477;48.736;9.176;2022-09-09T05:00:48;3.47;;;1.70;;
8881;SDS011;4477;48.736;9.176;2022-09-09T05:03:16;2.67;;;1.60;;
8881;SDS011;4477;48.736;9.176;2022-09-09T05:05:43;4.13;;;1.90;;
8881;SDS011;4477;48.736;9.176;2022-09-09T05:08:10;3.00;;;1.80;;
8881;SDS011;4477;48.736;9.176;2022-09-09T05:10:38;6.37;;;1.80;;
8881;SDS011;4477;48.736;9.176;2022-09-09T05:13:06;2.67;;;1.70;;
8881;SDS011;4477;48.736;9.176;2022-09-09T05:15:33;6.60;;;1.90;;
8881;SDS011;4477;48.736;9.176;2022-09-09T05:18:02;5.43;;;1.67;;
8881;SDS011;4477;48.736;9.176;2022-09-09T05:20:29;5.13;;;1.77;;
8881;SDS011;4477;48.736;9.176;2022-09-09T05:22:56;4.90;;;1.70;;
8881;SDS011;4477;48.736;9.176;2022-09-09T05:25:24;4.33;;;1.67;;
8881;SDS011;4477;48.736;9.176;2022-09-09T05:27:51;6.57;;;1.70;;
8881;SDS011;4477;48.736;9.176;2022-09-09T05:30:19;3.77;;;1.70;;
8881;SDS011;4477;48.736;9.176;2022-09-09T05:32:46;3.03;;;1.63;;
8881;SDS011;4477;48.736;9.176;2022-09-09T05:35:15;5.03;;;1.50;;
8881;SDS011;4477;48.736;9.176;2022-09-09T05:37:44;3.83;;;1.30;;
8881;SDS011;4477;48.736;9.176;2022-09-09T05:40:11;2.63;;;1.30;;
8881;SDS011;4477;48.736;9.176;2022-09-09T05:42:38;4.77;;;1.73;;
8881;SDS011;4477;48.736;9.176;2022-09-09T05:45:06;4.93;;;1.53;;
8881;SDS011;4477;48.736;9.176;2022-09-09T05:47:33;3.80;;;1.47;;
8881;SDS011;4477;48.736;9.176;2022-09-09T05:50:02;3.70;;;1.33;;
8881;SDS011;4477;48.736;9.176;2022-09-09T05:52:30;6.53;;;1.77;;
8881;SDS011;4477;48.736;9.176;2022-09-09T05:54:58;4.47;;;1.80;;
8881;SDS011;4477;48.736;9.176;2022-09-09T05:57:24;2.20;;;1.43;;
8881;SDS011;4477;48.736;9.176;2022-09-09T05:59:51;3.10;;;1.50;;
8881;SDS011;4477;48.736;9.176;2022-09-09T06:02:18;2.50;;;1.30;;
8881;SDS011;4477;48.736;9.176;2022-09-09T06:04:45;3.50;;;1.23;;
8881;SDS011;4477;48.736;9.176;2022-09-09T06:07:12;3.07;;;1.40;;
8881;SDS011;4477;48.736;9.176;2022-09-09T06:09:41;4.63;;;1.30;;
8881;SDS011;4477;48.736;9.176;2022-09-09T06:12:07;5.57;;;1.50;;
8881;SDS011;4477;48.736;9.176;2022-09-09T06:14:35;3.17;;;1.20;;
8881;SDS011;4477;48.736;9.176;2022-09-09T06:17:01;2.50;;;1.10;;
8881;SDS011;4477;48.736;9.176;2022-09-09T06:19:28;2.97;;;1.53;;
8881;SDS011;4477;48.736;9.176;2022-09-09T06:21:55;2.93;;;1.30;;
8881;SDS011;4477;48.736;9.176;2022-09-09T06:24:22;5.17;;;1.30;;
8881;SDS011;4477;48.736;9.176;2022-09-09T06:26:50;3.37;;;1.23;;
8881;SDS011;4477;48.736;9.176;2022-09-09T06:29:17;2.83;;;1.40;;
8881;SDS011;4477;48.736;9.176;2022-09-09T06:31:44;5.20;;;1.30;;
8881;SDS011;4477;48.736;9.176;2022-09-09T06:34:12;1.80;;;1.23;;
8881;SDS011;4477;48.736;9.176;2022-09-09T06:36:39;2.50;;;1.57;;
8881;SDS011;4477;48.736;9.176;2022-09-09T06:39:06;4.50;;;1.67;;
8881;SDS011;4477;48.736;9.176;2022-09-09T06:41:36;2.83;;;1.50;;
8881;SDS011;4477;48.736;9.176;2022-09-09T06:44:05;4.03;;;1.57;;
8881;SDS011;4477;48.736;9.176;2022-09-09T06:46:31;2.67;;;1.70;;
8881;SDS011;4477;48.736;9.176;2022-09-09T06:49:00;3.53;;;1.43;;
8881;SDS011;4477;48.736;9.176;2022-09-09T06:51:28;5.93;;;1.50;;
8881;SDS011;4477;48.736;9.176;2022-09-09T06:53:56;4.07;;;1.40;;
8881;SDS011;4477;48.736;9.176;2022-09-09T06:56:24;5.20;;;1.20;;
8881;SDS011;4477;48.736;9.176;2022-09-09T06:58:53;6.10;;;1.33;;
8881;SDS011;4477;48.736;9.176;2022-09-09T07:01:25;5.93;;;1.73;;
8881;SDS011;4477;48.736;9.176;2022-09-09T07:03:54;4.10;;;1.57;;
8881;SDS011;4477;48.736;9.176;2022-09-09T07:06:24;3.20;;;1.33;;
8881;SDS011;4477;48.736;9.176;2022-09-09T07:08:53;3.23;;;1.40;;
8881;SDS011;4477;48.736;9.176;2022-09-09T07:11:21;4.97;;;1.57;;
8881;SDS011;4477;48.736;9.176;2022-09-09T07:13:49;3.03;;;1.40;;
8881;SDS011;4477;48.736;9.176;2022-09-09T07:16:17;3.03;;;1.20;;
8881;SDS011;4477;48.736;9.176;2022-09-09T07:18:49;3.20;;;1.30;;
8881;SDS011;4477;48.736;9.176;2022-09-09T07:21:16;5.07;;;1.30;;
8881;SDS011;4477;48.736;9.176;2022-09-09T07:23:44;2.53;;;1.20;;
8881;SDS011;4477;48.736;9.176;2022-09-09T07:26:11;4.10;;;1.13;;
8881;SDS011;4477;48.736;9.176;2022-09-09T07:28:39;4.97;;;1.33;;
8881;SDS011;4477;48.736;9.176;2022-09-09T07:31:08;4.07;;;1.20;;
8881;SDS011;4477;48.736;9.176;2022-09-09T07:33:41;4.87;;;1.40;;
8881;SDS011;4477;48.736;9.176;2022-09-09T07:36:12;3.27;;;1.40;;
8881;SDS011;4477;48.736;9.176;2022-09-09T07:38:40;1.90;;;1.10;;
8881;SDS011;4477;48.736;9.176;2022-09-09T07:41:11;2.33;;;1.00;;
8881;SDS011;4477;48.736;9.176;2022-09-09T07:43:39;4.07;;;1.30;;
8881;SDS011;4477;48.736;9.176;2022-09-09T07:46:06;4.00;;;1.10;;
8881;SDS011;4477;48.736;9.176;2022-09-09T07:48:34;3.07;;;1.10;;
8881;SDS011;4477;48.736;9.176;2022-09-09T07:51:05;4.23;;;1.40;;
8881;SDS011;4477;48.736;9.176;2022-09-09T07:53:34;3.60;;;1.00;;
8881;SDS011;4477;48.736;9.176;2022-09-09T07:56:04;3.83;;;1.20;;
8881;SDS011;4477;48.736;9.176;2022-09-09T07:58:32;3.50;;;1.20;;
8881;SDS011;4477;48.736;9.176;2022-09-09T08:00:59;2.63;;;1.10;;
8881;SDS011;4477;48.736;9.176;2022-09-09T08:03:26;3.97;;;1.27;;
8881;SDS011;4477;48.736;9.176;2022-09-09T08:05:53;2.23;;;1.10;;
8881;SDS011;4477;48.736;9.176;2022-09-09T08:08:26;3.00;;;1.40;;
8881;SDS011;4477;48.736;9.176;2022-09-09T08:10:54;4.57;;;1.20;;
8881;SDS011;4477;48.736;9.176;2022-09-09T08:13:28;3.60;;;1.20;;
8881;SDS011;4477;48.736;9.176;2022-09-09T08:16:03;3.87;;;1.30;;
8881;SDS011;4477;48.736;9.176;2022-09-09T08:18:31;4.53;;;1.37;;
8881;SDS011;4477;48.736;9.176;2022-09-09T08:21:04;5.10;;;1.20;;
8881;SDS011;4477;48.736;9.176;2022-09-09T08:23:33;3.73;;;1.20;;
8881;SDS011;4477;48.736;9.176;2022-09-09T08:26:05;5.47;;;1.10;;
8881;SDS011;4477;48.736;9.176;2022-09-09T08:28:34;3.83;;;1.20;;
8881;SDS011;4477;48.736;9.176;2022-09-09T08:31:10;4.90;;;1.10;;
8881;SDS011;4477;48.736;9.176;2022-09-09T08:33:39;4.20;;;1.37;;
8881;SDS011;4477;48.736;9.176;2022-09-09T08:36:08;2.67;;;1.10;;
8881;SDS011;4477;48.736;9.176;2022-09-09T08:38:36;1.30;;;0.90;;
8881;SDS011;4477;48.736;9.176;2022-09-09T08:41:07;3.40;;;1.17;;
8881;SDS011;4477;48.736;9.176;2022-09-09T08:43:48;2.80;;;1.30;;
8881;SDS011;4477;48.736;9.176;2022-09-09T08:46:18;3.10;;;1.20;;
8881;SDS011;4477;48.736;9.176;2022-09-09T08:48:52;5.83;;;1.20;;
8881;SDS011;4477;48.736;9.176;2022-09-09T08:51:24;2.50;;;0.90;;
8881;SDS011;4477;48.736;9.176;2022-09-09T08:53:53;3.90;;;1.33;;
8881;SDS011;4477;48.736;9.176;2022-09-09T08:56:26;5.20;;;1.40;;
8881;SDS011;4477;48.736;9.176;2022-09-09T08:58:54;6.67;;;1.30;;
8881;SDS011;4477;48.736;9.176;2022-09-09T09:01:35;4.83;;;1.30;;
8881;SDS011;4477;48.736;9.176;2022-09-09T09:04:19;3.87;;;1.03;;
8881;SDS011;4477;48.736;9.176;2022-09-09T09:06:59;3.47;;;1.10;;
8881;SDS011;4477;48.736;9.176;2022-09-09T09:09:37;4.17;;;1.10;;
8881;SDS011;4477;48.736;9.176;2022-09-09T09:12:16;4.60;;;1.30;;
8881;SDS011;4477;48.736;9.176;2022-09-09T09:14:47;3.20;;;1.07;;
8881;SDS011;4477;48.736;9.176;2022-09-09T09:17:15;7.27;;;1.10;;
8881;SDS011;4477;48.736;9.176;2022-09-09T09:19:44;4.17;;;1.13;;
8881;SDS011;4477;48.736;9.176;2022-09-09T09:22:14;4.60;;;1.10;;
8881;SDS011;4477;48.736;9.176;2022-09-09T09:24:47;5.33;;;1.43;;
8881;SDS011;4477;48.736;9.176;2022-09-09T09:27:21;6.10;;;1.33;;
8881;SDS011;4477;48.736;9.176;2022-09-09T09:29:56;8.90;;;1.33;;
8881;SDS011;4477;48.736;9.176;2022-09-09T09:32:26;5.87;;;1.90;;
8881;SDS011;4477;48.736;9.176;2022-09-09T09:34:58;5.30;;;1.50;;
8881;SDS011;4477;48.736;9.176;2022-09-09T09:37:30;4.27;;;1.20;;
8881;SDS011;4477;48.736;9.176;2022-09-09T09:40:07;2.40;;;1.00;;
8881;SDS011;4477;48.736;9.176;2022-09-09T09:42:36;5.67;;;1.33;;
8881;SDS011;4477;48.736;9.176;2022-09-09T09:45:08;2.67;;;1.40;;
8881;SDS011;4477;48.736;9.176;2022-09-09T09:47:41;3.60;;;1.00;;
8881;SDS011;4477;48.736;9.176;2022-09-09T09:50:16;3.63;;;1.13;;
8881;SDS011;4477;48.736;9.176;2022-09-09T09:52:51;4.47;;;1.17;;
8881;SDS011;4477;48.736;9.176;2022-09-09T09:55:21;3.20;;;1.20;;
8881;SDS011;4477;48.736;9.176;2022-09-09T09:57:50;4.00;;;1.10;;
8881;SDS011;4477;48.736;9.176;2022-09-09T10:00:20;3.20;;;0.90;;
8881;SDS011;4477;48.736;9.176;2022-09-09T10:02:49;2.87;;;1.30;;
8881;SDS011;4477;48.736;9.176;2022-09-09T10:05:18;2.87;;;1.10;;
8881;SDS011;4477;48.736;9.176;2022-09-09T10:07:46;5.23;;;1.20;;
8881;SDS011;4477;48.736;9.176;2022-09-09T10:10:15;2.83;;;1.00;;
8881;SDS011;4477;48.736;9.176;2022-09-09T10:12:49;4.03;;;1.10;;
8881;SDS011;4477;48.736;9.176;2022-09-09T10:15:29;2.77;;;0.90;;
8881;SDS011;4477;48.736;9.176;2022-09-09T10:18:04;2.93;;;1.00;;
8881;SDS011;4477;48.736;9.176;2022-09-09T10:20:49;3.70;;;1.20;;
8881;SDS011;4477;48.736;9.176;2022-09-09T10:23:29;3.10;;;1.10;;
8881;SDS011;4477;48.736;9.176;2022-09-09T10:26:15;2.93;;;1.00;;
8881;SDS011;4477;48.736;9.176;2022-09-09T10:29:05;2.17;;;1.10;;
8881;SDS011;4477;48.736;9.176;2022-09-09T10:42:08;3.22;;;1.38;;
8881;SDS011;4477;48.736;9.176;2022-09-09T10:44:43;2.35;;;0.80;;
8881;SDS011;4477;48.736;9.176;2022-09-09T10:47:36;4.53;;;1.10;;
8881;SDS011;4477;48.736;9.176;2022-09-09T10:50:29;4.97;;;1.15;;
8881;SDS011;4477;48.736;9.176;2022-09-09T10:53:14;2.78;;;1.00;;
8881;SDS011;4477;48.736;9.176;2022-09-09T10:55:50;4.05;;;1.13;;
8881;SDS011;4477;48.736;9.176;2022-09-09T10:58:20;2.35;;;1.10;;
8881;SDS011;4477;48.736;9.176;2022-09-09T11:00:55;2.28;;;1.00;;
8881;SDS011;4477;48.736;9.176;2022-09-09T11:03:27;4.10;;;1.27;;
8881;SDS011;4477;48.736;9.176;2022-09-09T11:05:56;2.42;;;0.98;;
8881;SDS011;4477;48.736;9.176;2022-09-09T11:08:28;2.90;;;1.20;;
8881;SDS011;4477;48.736;9.176;2022-09-09T11:10:59;3.35;;;1.10;;
8881;SDS011;4477;48.736;9.176;2022-09-09T11:13:31;2.13;;;1.10;;
8881;SDS011;4477;48.736;9.176;2022-09-09T11:16:08;3.65;;;1.20;;
8881;SDS011;4477;48.736;9.176;2022-09-09T11:18:43;1.67;;;1.10;;
8881;SDS011;4477;48.736;9.176;2022-09-09T11:21:13;3.58;;;1.30;;
8881;SDS011;4477;48.736;9.176;2022-09-09T11:23:48;2.97;;;1.20;;
8881;SDS011;4477;48.736;9.176;2022-09-09T11:26:21;2.60;;;0.97;;
8881;SDS011;4477;48.736;9.176;2022-09-09T11:31:44;3.67;;;0.80;;
8881;SDS011;4477;48.736;9.176;2022-09-09T11:34:17;2.77;;;0.90;;
8881;SDS011;4477;48.736;9.176;2022-09-09T11:36:58;2.73;;;0.80;;
8881;SDS011;4477;48.736;9.176;2022-09-09T11:39:51;2.77;;;1.00;;
8881;SDS011;4477;48.736;9.176;2022-09-09T11:42:34;4.57;;;0.97;;
8881;SDS011;4477;48.736;9.176;2022-09-09T11:45:08;5.60;;;0.90;;
8881;SDS011;4477;48.736;9.176;2022-09-09T11:47:39;2.27;;;0.80;;
8881;SDS011;4477;48.736;9.176;2022-09-09T11:50:10;2.53;;;0.47;;
8881;SDS011;4477;48.736;9.176;2022-09-09T11:53:03;1.20;;;0.50;;
8881;SDS011;4477;48.736;9.176;2022-09-09T11:55:33;1.00;;;0.23;;
8881;SDS011;4477;48.736;9.176;2022-09-09T11:58:02;0.50;;;0.37;;
8881;SDS011;4477;48.736;9.176;2022-09-09T12:00:31;1.47;;;0.40;;
8881;SDS011;4477;48.736;9.176;2022-09-09T12:03:03;0.55;;;0.25;;
8881;SDS011;4477;48.736;9.176;2022-09-09T12:05:37;0.85;;;0.20;;
8881;SDS011;4477;48.736;9.176;2022-09-09T12:08:08;1.17;;;0.30;;
8881;SDS011;4477;48.736;9.176;2022-09-09T12:10:38;0.70;;;0.28;;
8881;SDS011;4477;48.736;9.176;2022-09-09T12:13:15;0.63;;;0.25;;
8881;SDS011;4477;48.736;9.176;2022-09-09T12:15:47;1.15;;;0.40;;
8881;SDS011;4477;48.736;9.176;2022-09-09T12:18:18;1.25;;;0.50;;
8881;SDS011;4477;48.736;9.176;2022-09-09T12:20:52;0.73;;;0.43;;
8881;SDS011;4477;48.736;9.176;2022-09-09T12:23:30;1.23;;;0.50;;
8881;SDS011;4477;48.736;9.176;2022-09-09T12:28:54;2.67;;;0.68;;
8881;SDS011;4477;48.736;9.176;2022-09-09T12:31:30;1.08;;;0.43;;
8881;SDS011;4477;48.736;9.176;2022-09-09T12:34:15;2.28;;;0.50;;
8881;SDS011;4477;48.736;9.176;2022-09-09T12:36:47;2.40;;;0.50;;
8881;SDS011;4477;48.736;9.176;2022-09-09T12:39:20;1.23;;;0.50;;
8881;SDS011;4477;48.736;9.176;2022-09-09T12:41:55;1.83;;;0.40;;
8881;SDS011;4477;48.736;9.176;2022-09-09T12:44:22;1.98;;;0.63;;
8881;SDS011;4477;48.736;9.176;2022-09-09T12:46:50;2.42;;;0.60;;
8881;SDS011;4477;48.736;9.176;2022-09-09T12:52:07;2.35;;;0.88;;
8881;SDS011;4477;48.736;9.176;2022-09-09T12:54:42;3.97;;;0.68;;
8881;SDS011;4477;48.736;9.176;2022-09-09T12:57:11;3.50;;;0.70;;
8881;SDS011;4477;48.736;9.176;2022-09-09T12:59:40;4.60;;;0.70;;
8881;SDS011;4477;48.736;9.176;2022-09-09T13:02:14;2.35;;;0.60;;
8881;SDS011;4477;48.736;9.176;2022-09-09T13:04:46;2.47;;;0.60;;
8881;SDS011;4477;48.736;9.176;2022-09-09T13:07:15;2.65;;;0.60;;
8881;SDS011;4477;48.736;9.176;2022-09-09T13:09:43;3.22;;;0.60;;
8881;SDS011;4477;48.736;9.176;2022-09-09T13:12:12;3.63;;;0.80;;
8881;SDS011;4477;48.736;9.176;2022-09-09T13:14:42;3.65;;;0.65;;
8881;SDS011;4477;48.736;9.176;2022-09-09T13:17:15;3.45;;;0.55;;
8881;SDS011;4477;48.736;9.176;2022-09-09T13:19:48;1.30;;;0.47;;
8881;SDS011;4477;48.736;9.176;2022-09-09T13:22:20;2.47;;;0.70;;
8881;SDS011;4477;48.736;9.176;2022-09-09T13:24:48;1.40;;;0.60;;
8881;SDS011;4477;48.736;9.176;2022-09-09T13:27:28;2.65;;;0.98;;
8881;SDS011;4477;48.736;9.176;2022-09-09T13:29:58;3.42;;;0.60;;
8881;SDS011;4477;48.736;9.176;2022-09-09T13:32:26;2.30;;;0.45;;
8881;SDS011;4477;48.736;9.176;2022-09-09T13:34:55;1.63;;;0.60;;
8881;SDS011;4477;48.736;9.176;2022-09-09T13:37:23;3.60;;;0.68;;
8881;SDS011;4477;48.736;9.176;2022-09-09T13:39:55;4.07;;;0.70;;
8881;SDS011;4477;48.736;9.176;2022-09-09T13:42:24;2.55;;;0.68;;
8881;SDS011;4477;48.736;9.176;2022-09-09T13:44:54;2.85;;;0.70;;
8881;SDS011;4477;48.736;9.176;2022-09-09T13:47:26;1.67;;;0.50;;
8881;SDS011;4477;48.736;9.176;2022-09-09T13:49:57;2.88;;;0.77;;
8881;SDS011;4477;48.736;9.176;2022-09-09T13:52:24;3.67;;;1.15;;
8881;SDS011;4477;48.736;9.176;2022-09-09T13:54:55;1.75;;;0.57;;
8881;SDS011;4477;48.736;9.176;2022-09-09T13:57:24;2.63;;;0.68;;
8881;SDS011;4477;48.736;9.176;2022-09-09T13:59:52;1.90;;;0.70;;
8881;SDS011;4477;48.736;9.176;2022-09-09T14:02:21;11.32;;;1.17;;
8881;SDS011;4477;48.736;9.176;2022-09-09T14:04:49;2.15;;;0.52;;
8881;SDS011;4477;48.736;9.176;2022-09-09T14:07:21;3.72;;;0.60;;
8881;SDS011;4477;48.736;9.176;2022-09-09T14:09:48;2.13;;;0.60;;
8881;SDS011;4477;48.736;9.176;2022-09-09T14:12:16;4.15;;;0.68;;
8881;SDS011;4477;48.736;9.176;2022-09-09T14:14:43;2.53;;;0.68;;
8881;SDS011;4477;48.736;9.176;2022-09-09T14:17:10;1.38;;;0.57;;
8881;SDS011;4477;48.736;9.176;2022-09-09T14:19:37;1.77;;;0.70;;
8881;SDS011;4477;48.736;9.176;2022-09-09T14:22:04;2.22;;;0.70;;
8881;SDS011;4477;48.736;9.176;2022-09-09T14:24:32;2.80;;;0.68;;
8881;SDS011;4477;48.736;9.176;2022-09-09T14:27:00;2.00;;;0.57;;
8881;SDS011;4477;48.736;9.176;2022-09-09T14:29:27;2.70;;;0.60;;
8881;SDS011;4477;48.736;9.176;2022-09-09T14:31:55;1.40;;;0.50;;
8881;SDS011;4477;48.736;9.176;2022-09-09T14:34:22;3.67;;;0.40;;
8881;SDS011;4477;48.736;9.176;2022-09-09T14:36:48;1.33;;;0.50;;
8881;SDS011;4477;48.736;9.176;2022-09-09T14:39:16;1.75;;;0.40;;
8881;SDS011;4477;48.736;9.176;2022-09-09T14:41:44;1.05;;;0.50;;
8881;SDS011;4477;48.736;9.176;2022-09-09T14:44:11;1.58;;;0.52;;
8881;SDS011;4477;48.736;9.176;2022-09-09T14:46:38;2.13;;;0.45;;
8881;SDS011;4477;48.736;9.176;2022-09-09T14:49:06;3.17;;;0.60;;
8881;SDS011;4477;48.736;9.176;2022-09-09T14:51:32;1.48;;;0.60;;
8881;SDS011;4477;48.736;9.176;2022-09-09T14:53:59;1.48;;;0.50;;
8881;SDS011;4477;48.736;9.176;2022-09-09T14:56:27;1.75;;;0.60;;
8881;SDS011;4477;48.736;9.176;2022-09-09T14:58:57;3.13;;;0.50;;
8881;SDS011;4477;48.736;9.176;2022-09-09T15:01:26;2.88;;;0.50;;
8881;SDS011;4477;48.736;9.176;2022-09-09T15:03:54;1.60;;;0.55;;
8881;SDS011;4477;48.736;9.176;2022-09-09T15:06:23;2.25;;;0.60;;
8881;SDS011;4477;48.736;9.176;2022-09-09T15:08:51;2.45;;;0.57;;
8881;SDS011;4477;48.736;9.176;2022-09-09T15:11:19;1.75;;;0.60;;
8881;SDS011;4477;48.736;9.176;2022-09-09T15:13:47;1.90;;;0.70;;
8881;SDS011;4477;48.736;9.176;2022-09-09T15:16:19;3.15;;;0.52;;
8881;SDS011;4477;48.736;9.176;2022-09-09T15:18:49;1.75;;;0.65;;
8881;SDS011;4477;48.736;9.176;2022-09-09T15:21:19;3.65;;;0.60;;
8881;SDS011;4477;48.736;9.176;2022-09-09T15:23:51;3.88;;;0.80;;
8881;SDS011;4477;48.736;9.176;2022-09-09T15:26:18;2.92;;;0.80;;
8881;SDS011;4477;48.736;9.176;2022-09-09T15:28:46;1.90;;;0.68;;
8881;SDS011;4477;48.736;9.176;2022-09-09T15:31:15;3.38;;;0.70;;
8881;SDS011;4477;48.736;9.176;2022-09-09T15:33:47;3.70;;;0.60;;
8881;SDS011;4477;48.736;9.176;2022-09-09T15:36:15;3.30;;;0.80;;
8881;SDS011;4477;48.736;9.176;2022-09-09T15:38:43;1.10;;;0.57;;
8881;SDS011;4477;48.736;9.176;2022-09-09T15:41:11;2.05;;;0.80;;
8881;SDS011;4477;48.736;9.176;2022-09-09T15:43:38;3.38;;;0.90;;
8881;SDS011;4477;48.736;9.176;2022-09-09T15:46:20;2.45;;;0.75;;
8881;SDS011;4477;48.736;9.176;2022-09-09T15:48:52;3.27;;;0.80;;
8881;SDS011;4477;48.736;9.176;2022-09-09T15:51:20;5.07;;;0.80;;
8881;SDS011;4477;48.736;9.176;2022-09-09T15:53:48;2.50;;;0.87;;
8881;SDS011;4477;48.736;9.176;2022-09-09T15:56:15;2.30;;;0.97;;
8881;SDS011;4477;48.736;9.176;2022-09-09T15:58:42;3.97;;;0.57;;